Time;durP1;ratioP1;P1;durP2;ratioP2;P2;SDS_P1;SDS_P2;PMS_P1;PMS_P2;Temp;Humidity;BMP_temperature;BMP_pressure;BME280_temperature;BME280_humidity;BME280_pressure;Samples;Min_cycle;Max_cycle;Signal;HPM_P1;HPM_P2
2022/12/25 00:01:10;;;;;;;15.48;9.80;;;6.90;99.90;;;;;;5050907;28;20390;-60
2022/12/25 00:03:38;;;;;;;17.13;9.27;;;6.90;99.90;;;;;;5048951;28;20037;-60
2022/12/25 00:06:05;;;;;;;17.58;9.90;;;6.90;99.90;;;;;;5050817;28;20052;-60
2022/12/25 00:08:33;;;;;;;16.00;9.75;;;6.90;99.90;;;;;;5049766;28;20041;-60
2022/12/25 00:11:01;;;;;;;;;;;6.80;99.90;;;;;;5051524;28;20045;-60
2022/12/25 00:13:27;;;;;;;18.88;11.02;;;6.80;99.90;;;;;;5047433;28;20385;-60
2022/12/25 00:15:54;;;;;;;19.65;11.20;;;6.80;99.90;;;;;;5043663;28;20069;-60
2022/12/25 00:18:22;;;;;;;22.00;11.43;;;6.90;99.90;;;;;;5049224;28;20048;-60
2022/12/25 00:21:00;;;;;;;19.70;11.65;;;6.80;99.90;;;;;;5050208;28;20041;-60
2022/12/25 00:23:27;;;;;;;21.52;11.75;;;6.90;99.90;;;;;;5044580;28;20067;-60
2022/12/25 00:25:54;;;;;;;;;;;6.90;99.90;;;;;;5050161;28;20029;-60
2022/12/25 00:28:22;;;;;;;21.38;12.07;;;6.80;99.90;;;;;;5048629;28;19986;-60
2022/12/25 00:30:49;;;;;;;21.27;11.65;;;6.80;99.90;;;;;;5050160;28;20044;-60
2022/12/25 00:33:16;;;;;;;25.50;11.73;;;6.80;99.90;;;;;;5047294;28;20040;-60
2022/12/25 00:35:43;;;;;;;21.15;12.32;;;6.80;99.90;;;;;;5050474;28;20094;-60
2022/12/25 00:38:10;;;;;;;18.48;10.73;;;6.80;99.90;;;;;;5049531;28;20064;-60
2022/12/25 00:40:43;;;;;;;20.67;10.63;;;6.80;99.90;;;;;;5047436;28;20041;-60
2022/12/25 00:43:10;;;;;;;15.73;9.85;;;6.80;99.90;;;;;;5031479;28;20083;-60
2022/12/25 00:45:36;;;;;;;19.90;10.13;;;6.80;99.90;;;;;;5049477;28;20045;-60
2022/12/25 00:48:03;;;;;;;17.17;10.43;;;6.80;99.90;;;;;;5042919;28;20041;-60
2022/12/25 00:50:30;;;;;;;16.35;10.05;;;6.80;99.90;;;;;;5050149;28;20098;-60
2022/12/25 00:52:57;;;;;;;18.58;9.02;;;6.80;99.90;;;;;;5049193;28;20061;-60
2022/12/25 00:55:23;;;;;;;16.42;9.30;;;6.70;99.90;;;;;;5049743;28;20082;-60
2022/12/25 00:57:50;;;;;;;16.45;8.23;;;6.70;99.90;;;;;;5044633;28;20068;-60
2022/12/25 01:00:17;;;;;;;14.02;8.45;;;6.70;99.90;;;;;;5049350;28;20045;-60
2022/12/25 01:02:44;;;;;;;13.85;8.45;;;6.70;99.90;;;;;;5049391;28;20049;-60
2022/12/25 01:05:10;;;;;;;14.55;8.25;;;6.70;99.90;;;;;;5049593;28;20123;-60
2022/12/25 01:07:37;;;;;;;13.25;7.43;;;6.70;99.90;;;;;;5047007;28;20049;-60
2022/12/25 01:10:23;;;;;;;13.55;7.72;;;6.70;99.90;;;;;;5053590;28;20044;-60
2022/12/25 01:12:51;;;;;;;13.20;8.00;;;6.70;99.90;;;;;;5053702;28;20075;-60
2022/12/25 01:15:18;;;;;;;16.23;9.13;;;6.70;99.90;;;;;;5045896;28;20041;-60
2022/12/25 01:17:45;;;;;;;16.83;8.98;;;6.70;99.90;;;;;;5054248;28;20111;-60
2022/12/25 01:20:14;;;;;;;11.88;7.47;;;6.70;99.90;;;;;;5052739;28;20076;-60
2022/12/25 01:22:41;;;;;;;15.15;7.22;;;6.70;99.90;;;;;;5053048;28;20123;-60
2022/12/25 01:25:09;;;;;;;14.50;7.95;;;6.70;99.90;;;;;;5050561;28;20436;-60
2022/12/25 01:27:36;;;;;;;13.38;7.75;;;6.70;99.90;;;;;;5053498;28;20033;-60
2022/12/25 01:30:04;;;;;;;13.95;8.10;;;6.70;99.90;;;;;;5052954;28;20041;-60
2022/12/25 01:32:30;;;;;;;16.58;8.85;;;6.70;99.90;;;;;;5041028;28;20816;-60
2022/12/25 01:34:57;;;;;;;15.93;9.00;;;6.70;99.90;;;;;;5043945;28;20120;-60
2022/12/25 01:37:24;;;;;;;14.55;9.50;;;6.70;99.90;;;;;;5047582;28;20106;-60
2022/12/25 01:39:51;;;;;;;15.90;9.07;;;6.70;99.90;;;;;;5052190;28;20095;-60
2022/12/25 01:42:20;;;;;;;16.42;8.27;;;6.70;99.90;;;;;;5034358;28;20052;-60
2022/12/25 01:44:50;;;;;;;10.93;6.90;;;6.80;99.90;;;;;;5052570;28;20076;-60
2022/12/25 01:47:17;;;;;;;13.20;7.40;;;6.90;99.90;;;;;;5053685;28;20110;-60
2022/12/25 01:49:48;;;;;;;15.02;7.13;;;6.80;99.90;;;;;;5049843;28;20596;-60
2022/12/25 01:52:20;;;;;;;10.35;6.45;;;6.80;99.90;;;;;;5054136;28;20083;-60
2022/12/25 01:54:56;;;;;;;13.07;6.60;;;6.70;99.90;;;;;;5057159;28;20147;-60
2022/12/25 01:57:29;;;;;;;9.30;5.65;;;6.60;99.90;;;;;;5054766;28;20044;-60
2022/12/25 01:59:58;;;;;;;9.75;5.50;;;6.60;99.90;;;;;;5048767;28;20113;-60
2022/12/25 02:02:25;;;;;;;11.30;6.18;;;6.60;99.90;;;;;;5059838;28;20055;-60
2022/12/25 02:05:04;;;;;;;12.70;6.28;;;6.60;99.90;;;;;;5038875;28;20577;-60
2022/12/25 02:07:33;;;;;;;11.57;6.95;;;6.60;99.90;;;;;;5052699;28;20486;-60
2022/12/25 02:10:00;;;;;;;15.55;7.90;;;6.60;99.90;;;;;;5040133;28;20429;-60
2022/12/25 02:12:31;;;;;;;15.27;8.10;;;6.60;99.90;;;;;;5072155;28;20052;-60
2022/12/25 02:15:02;;;;;;;14.48;8.20;;;6.60;99.90;;;;;;5048255;28;20552;-60
2022/12/25 02:17:51;;;;;;;13.75;8.48;;;6.60;99.90;;;;;;5056995;28;20097;-60
2022/12/25 02:20:27;;;;;;;16.67;8.70;;;6.60;99.90;;;;;;5052031;28;20052;-60
2022/12/25 02:23:18;;;;;;;17.85;8.10;;;6.70;99.90;;;;;;5048950;28;20050;-60
2022/12/25 02:26:06;;;;;;;16.35;9.20;;;6.60;99.90;;;;;;5061690;28;20048;-60
2022/12/25 02:28:57;;;;;;;16.42;9.38;;;6.60;99.90;;;;;;5043744;28;20060;-60
2022/12/25 02:31:48;;;;;;;18.77;10.60;;;6.60;99.90;;;;;;5059081;22;20102;-60
2022/12/25 02:34:20;;;;;;;16.25;9.55;;;6.60;99.90;;;;;;5050501;28;20048;-60
2022/12/25 02:37:07;;;;;;;16.77;8.95;;;6.60;99.90;;;;;;5090998;28;20040;-60
2022/12/25 02:40:04;;;;;;;17.65;9.25;;;6.60;99.90;;;;;;5071694;28;20067;-60
2022/12/25 03:11:29;;;;;;;22.15;11.63;;;6.60;99.90;;;;;;5048715;28;20041;-60
2022/12/25 03:11:51;;;;;;;20.90;11.35;;;6.60;99.90;;;;;;5043362;28;20067;-60
2022/12/25 03:17:03;;;;;;;20.05;11.65;;;6.70;99.90;;;;;;5058048;28;20051;-60
2022/12/25 03:27:55;;;;;;;24.08;11.50;;;6.70;99.90;;;;;;5071943;28;20044;-60
2022/12/25 03:37:08;;;;;;;26.40;12.43;;;6.70;99.90;;;;;;5065251;28;20087;-60
2022/12/25 04:36:16;;;;;;;19.15;10.73;;;6.50;99.90;;;;;;5069807;28;20052;-61
2022/12/25 04:38:43;;;;;;;20.85;11.50;;;6.60;99.90;;;;;;5053610;28;20134;-61
2022/12/25 04:41:11;;;;;;;23.08;11.38;;;6.60;99.90;;;;;;5059881;28;20624;-62
2022/12/25 04:43:38;;;;;;;18.33;10.77;;;6.60;99.90;;;;;;5069610;28;20048;-61
2022/12/25 04:46:05;;;;;;;18.90;10.63;;;6.50;99.90;;;;;;5069084;28;20455;-61
2022/12/25 04:48:34;;;;;;;20.48;9.73;;;6.50;99.90;;;;;;5079383;28;20036;-60
2022/12/25 04:51:10;;;;;;;16.20;9.35;;;6.50;99.90;;;;;;5090520;28;20036;-61
2022/12/25 04:53:37;;;;;;;17.98;10.07;;;5.80;99.90;;;;;;5050068;28;20501;-61
2022/12/25 04:56:04;;;;;;;14.20;8.80;;;6.50;99.90;;;;;;5049769;28;20064;-61
2022/12/25 04:58:31;;;;;;;17.63;10.15;;;6.50;99.90;;;;;;5059069;28;20102;-61
2022/12/25 05:00:59;;;;;;;16.75;9.80;;;6.50;99.90;;;;;;5049994;28;20072;-61
2022/12/25 05:03:27;;;;;;;23.77;10.85;;;6.50;99.90;;;;;;5057458;28;20052;-62
2022/12/25 05:05:54;;;;;;;20.63;10.68;;;6.50;99.90;;;;;;5084099;28;20123;-61
2022/12/25 05:08:22;;;;;;;18.40;9.82;;;6.50;99.90;;;;;;5050529;28;20073;-61
2022/12/25 05:10:49;;;;;;;18.77;11.05;;;6.50;99.90;;;;;;5049698;28;20090;-61
2022/12/25 05:13:15;;;;;;;14.65;8.68;;;6.50;99.90;;;;;;5052210;28;20059;-61
2022/12/25 05:15:42;;;;;;;18.77;9.85;;;6.50;99.90;;;;;;5061298;28;20045;-61
2022/12/25 05:18:09;;;;;;;14.13;8.43;;;6.50;99.90;;;;;;5070699;28;20048;-61
2022/12/25 05:20:36;;;;;;;18.90;10.52;;;6.50;99.90;;;;;;5067431;28;20052;-61
2022/12/25 05:23:07;;;;;;;14.18;8.80;;;6.40;99.90;;;;;;5058577;28;20128;-61
2022/12/25 05:25:38;;;;;;;24.02;11.13;;;6.40;99.90;;;;;;5086554;28;20096;-61
2022/12/25 05:28:05;;;;;;;18.40;9.75;;;6.40;99.90;;;;;;5090520;28;20048;-61
2022/12/25 05:30:33;;;;;;;19.63;10.40;;;6.40;99.90;;;;;;5064960;28;20040;-61
2022/12/25 05:33:00;;;;;;;19.48;9.82;;;6.40;99.90;;;;;;5082757;28;20064;-61
2022/12/25 05:35:27;;;;;;;18.35;10.07;;;6.40;99.90;;;;;;5070783;28;20121;-61
2022/12/25 05:37:54;;;;;;;20.83;11.45;;;6.40;99.90;;;;;;5057133;28;20307;-61
2022/12/25 05:40:20;;;;;;;22.35;10.98;;;6.40;99.90;;;;;;5060149;28;20109;-61
2022/12/25 05:42:47;;;;;;;18.67;10.10;;;6.40;99.90;;;;;;5069915;28;20041;-61
2022/12/25 05:45:14;;;;;;;19.77;10.10;;;6.40;99.90;;;;;;5059825;28;20446;-61
2022/12/25 05:47:40;;;;;;;18.25;10.00;;;6.40;99.90;;;;;;5050222;28;20095;-61
2022/12/25 05:50:07;;;;;;;18.70;10.32;;;6.40;99.90;;;;;;5049176;28;20132;-61
2022/12/25 05:52:34;;;;;;;19.95;9.65;;;6.40;99.90;;;;;;5073591;28;20099;-61
2022/12/25 05:55:01;;;;;;;22.15;11.20;;;6.40;99.90;;;;;;5077758;28;20044;-61
2022/12/25 05:57:28;;;;;;;18.77;10.38;;;6.40;99.90;;;;;;5093118;28;20101;-61
2022/12/25 05:59:55;;;;;;;20.50;10.73;;;6.40;99.90;;;;;;5067225;28;20075;-61
2022/12/25 06:02:23;;;;;;;17.15;10.23;;;6.40;99.90;;;;;;5075253;28;20133;-61
2022/12/25 06:04:50;;;;;;;16.88;9.23;;;6.40;99.90;;;;;;5066357;28;20052;-61
2022/12/25 06:07:17;;;;;;;18.27;9.23;;;6.40;99.90;;;;;;5053292;28;20483;-61
2022/12/25 06:09:43;;;;;;;16.65;9.60;;;6.40;99.90;;;;;;5064252;28;20071;-61
2022/12/25 06:12:10;;;;;;;18.77;10.50;;;6.40;99.90;;;;;;5093125;28;20127;-61
2022/12/25 06:14:37;;;;;;;17.25;9.80;;;6.40;99.90;;;;;;5062370;28;20052;-61
2022/12/25 06:17:03;;;;;;;18.55;10.68;;;6.40;99.90;;;;;;5053113;28;20497;-61
2022/12/25 06:19:30;;;;;;;20.90;9.85;;;6.40;99.90;;;;;;5062715;28;20052;-61
2022/12/25 06:21:57;;;;;;;20.48;11.32;;;6.40;99.90;;;;;;5092678;28;20075;-61
2022/12/25 06:24:24;;;;;;;19.30;10.73;;;6.40;99.90;;;;;;5059642;28;20049;-61
2022/12/25 06:26:50;;;;;;;17.05;10.27;;;6.30;99.90;;;;;;5052984;28;20084;-61
2022/12/25 06:29:17;;;;;;;20.67;11.35;;;6.30;99.90;;;;;;5064589;28;20029;-61
2022/12/25 06:31:44;;;;;;;18.98;10.32;;;6.30;99.90;;;;;;5092582;28;20040;-61
2022/12/25 06:34:15;;;;;;;20.55;10.63;;;6.30;99.90;;;;;;5055999;28;20047;-61
2022/12/25 06:36:42;;;;;;;19.63;11.07;;;6.30;99.90;;;;;;5052317;28;20171;-61
2022/12/25 06:39:09;;;;;;;19.77;11.27;;;6.30;99.90;;;;;;5070991;28;20492;-61
2022/12/25 06:41:35;;;;;;;19.88;11.57;;;6.20;99.90;;;;;;5092430;28;20101;-61
2022/12/25 06:44:02;;;;;;;21.25;11.55;;;6.20;99.90;;;;;;5055900;28;20140;-61
2022/12/25 06:46:29;;;;;;;20.10;11.18;;;6.20;99.90;;;;;;5080156;28;20101;-61
2022/12/25 06:48:57;;;;;;;21.40;11.48;;;6.20;99.90;;;;;;5083465;28;20082;-61
2022/12/25 06:51:27;;;;;;;24.02;11.52;;;6.20;99.90;;;;;;5088498;28;20044;-61
2022/12/25 06:53:55;;;;;;;23.50;12.20;;;6.20;99.90;;;;;;5052615;28;20075;-61
2022/12/25 06:56:24;;;;;;;21.83;11.57;;;6.20;99.90;;;;;;5059517;28;20044;-61
2022/12/25 06:59:03;;;;;;;20.77;11.98;;;6.20;99.90;;;;;;5068258;28;20405;-61
2022/12/25 07:01:34;;;;;;;24.50;11.95;;;6.20;99.90;;;;;;5074073;28;20040;-61
2022/12/25 07:04:16;;;;;;;23.35;12.77;;;6.30;99.90;;;;;;5088938;28;20040;-61
2022/12/25 07:06:43;;;;;;;20.92;12.52;;;6.30;99.90;;;;;;5072648;28;20041;-61
2022/12/25 07:09:09;;;;;;;22.65;11.90;;;6.30;99.90;;;;;;5051877;28;20048;-61
2022/12/25 07:11:36;;;;;;;25.08;12.77;;;6.30;99.90;;;;;;5056096;28;20628;-61
2022/12/25 07:14:03;;;;;;;21.17;10.90;;;6.30;99.90;;;;;;5064043;28;20558;-61
2022/12/25 07:16:29;;;;;;;18.48;9.50;;;6.30;99.90;;;;;;5071580;28;20033;-61
2022/12/25 07:18:59;;;;;;;21.30;11.20;;;6.30;99.90;;;;;;5072363;28;20048;-61
2022/12/25 07:21:26;;;;;;;22.02;11.60;;;6.20;99.90;;;;;;5069645;28;20087;-61
2022/12/25 07:23:52;;;;;;;18.58;10.88;;;6.30;99.90;;;;;;5054412;28;20077;-61
2022/12/25 07:26:19;;;;;;;26.55;14.18;;;6.30;99.90;;;;;;5051086;28;20528;-61
2022/12/25 07:28:46;;;;;;;19.60;11.50;;;6.40;99.90;;;;;;5070949;28;20445;-61
2022/12/25 07:31:15;;;;;;;18.88;10.00;;;6.40;99.90;;;;;;5080828;28;20064;-61
2022/12/25 07:33:42;;;;;;;21.67;11.52;;;6.40;99.90;;;;;;5090705;28;20040;-61
2022/12/25 07:36:11;;;;;;;19.15;10.07;;;6.40;99.90;;;;;;5062071;28;20489;-61
2022/12/25 07:38:42;;;;;;;18.85;9.82;;;6.30;99.90;;;;;;5051662;28;20052;-61
2022/12/25 07:41:11;;;;;;;16.83;9.52;;;6.30;99.90;;;;;;5050198;28;20099;-61
2022/12/25 07:43:38;;;;;;;20.25;10.80;;;6.20;99.90;;;;;;5050358;28;20453;-61
2022/12/25 07:46:05;;;;;;;20.20;10.77;;;6.20;99.90;;;;;;5070740;28;20043;-61
2022/12/25 07:48:32;;;;;;;20.38;10.90;;;6.20;99.90;;;;;;5090582;28;20496;-61
2022/12/25 07:51:00;;;;;;;17.83;9.40;;;6.20;99.90;;;;;;5056641;28;20033;-61
2022/12/25 07:53:27;;;;;;;17.88;9.63;;;6.20;99.90;;;;;;5058961;28;20531;-61
2022/12/25 07:55:59;;;;;;;16.30;9.05;;;6.20;99.90;;;;;;5066663;28;20515;-61
2022/12/25 07:58:27;;;;;;;17.02;10.30;;;6.20;99.90;;;;;;5067043;28;20459;-61
2022/12/25 08:00:54;;;;;;;15.52;9.13;;;6.10;99.90;;;;;;5074935;28;20079;-61
2022/12/25 08:03:21;;;;;;;16.83;8.90;;;6.20;99.90;;;;;;5085888;28;20135;-61
2022/12/25 08:05:48;;;;;;;17.20;9.05;;;6.10;99.90;;;;;;5075928;28;20497;-61
2022/12/25 08:08:15;;;;;;;15.52;8.40;;;6.10;99.90;;;;;;5086283;28;20063;-61
2022/12/25 08:10:46;;;;;;;18.27;8.93;;;6.10;99.90;;;;;;5051446;28;20072;-61
2022/12/25 08:13:13;;;;;;;17.23;9.48;;;6.00;99.90;;;;;;5055481;28;20123;-61
2022/12/25 08:15:41;;;;;;;16.70;8.98;;;6.10;99.90;;;;;;5084895;28;20518;-60
2022/12/25 08:18:08;;;;;;;;;;;6.10;99.90;;;;;;5080675;28;20646;-61
2022/12/25 08:20:35;;;;;;;14.60;7.80;;;6.10;99.90;;;;;;5070192;28;19963;-61
2022/12/25 08:23:02;;;;;;;21.88;9.77;;;6.10;99.90;;;;;;5064432;28;20036;-60
2022/12/25 08:25:28;;;;;;;18.20;9.07;;;6.10;99.90;;;;;;5070884;28;20090;-61
2022/12/25 08:27:55;;;;;;;17.13;8.32;;;6.00;99.90;;;;;;5057911;28;20131;-61
2022/12/25 08:30:22;;;;;;;12.75;6.25;;;6.00;99.90;;;;;;5077511;28;20500;-60
2022/12/25 08:32:48;;;;;;;12.80;6.55;;;6.00;99.90;;;;;;5072874;28;20064;-61
2022/12/25 08:35:15;;;;;;;13.20;6.90;;;6.00;99.90;;;;;;5061965;28;20378;-60
2022/12/25 08:37:42;;;;;;;14.23;7.30;;;6.00;99.90;;;;;;5063959;28;20071;-60
2022/12/25 08:40:09;;;;;;;15.27;7.32;;;6.00;99.90;;;;;;5068177;28;20097;-60
2022/12/25 08:42:36;;;;;;;13.98;7.65;;;6.00;99.90;;;;;;5067932;28;20052;-61
2022/12/25 08:45:04;;;;;;;13.77;6.82;;;6.10;99.90;;;;;;5050864;28;20098;-61
2022/12/25 08:47:30;;;;;;;12.38;7.05;;;6.20;99.90;;;;;;5076195;28;20044;-61
2022/12/25 08:49:57;;;;;;;16.15;8.48;;;6.30;99.90;;;;;;5086026;28;20075;-61
2022/12/25 08:52:24;;;;;;;13.27;7.20;;;6.30;99.90;;;;;;5071460;28;20552;-61
2022/12/25 08:54:51;;;;;;;13.18;6.90;;;6.40;99.90;;;;;;5049936;28;20037;-61
2022/12/25 08:57:17;;;;;;;13.90;6.32;;;6.30;99.90;;;;;;5051520;28;20064;-61
2022/12/25 08:59:44;;;;;;;8.55;4.38;;;6.40;99.90;;;;;;5081727;28;20067;-61
2022/12/25 09:02:11;;;;;;;11.45;6.40;;;6.40;99.90;;;;;;5063557;28;20044;-61
2022/12/25 09:04:38;;;;;;;;;;;6.40;99.90;;;;;;5090742;28;20046;-61
2022/12/25 09:07:05;;;;;;;11.98;5.95;;;6.50;99.90;;;;;;5077591;28;19955;-61
2022/12/25 09:09:31;;;;;;;14.02;6.38;;;6.40;99.90;;;;;;5090417;28;20071;-61
2022/12/25 09:11:58;;;;;;;10.80;5.57;;;6.40;99.90;;;;;;5063400;28;20497;-61
2022/12/25 09:14:25;;;;;;;11.50;6.45;;;6.50;99.90;;;;;;5049341;28;20382;-63
2022/12/25 09:16:51;;;;;;;9.27;5.55;;;6.50;99.90;;;;;;5069822;28;20044;-61
2022/12/25 09:19:18;;;;;;;12.52;6.30;;;6.50;99.90;;;;;;5089832;28;20068;-61
2022/12/25 09:21:45;;;;;;;12.77;6.07;;;6.60;99.90;;;;;;5064555;28;20412;-61
2022/12/25 09:24:12;;;;;;;12.88;6.78;;;6.60;99.90;;;;;;5089856;28;20040;-61
2022/12/25 09:26:38;;;;;;;12.15;6.32;;;6.90;99.90;;;;;;5061614;28;20057;-61
2022/12/25 09:29:05;;;;;;;10.82;5.45;;;6.80;99.90;;;;;;5050831;28;20511;-61
2022/12/25 09:31:32;;;;;;;8.80;5.05;;;6.80;99.90;;;;;;5089424;28;20492;-61
2022/12/25 09:33:59;;;;;;;8.85;4.95;;;6.80;99.90;;;;;;5093788;28;20040;-61
2022/12/25 09:36:26;;;;;;;11.27;5.43;;;6.60;99.90;;;;;;5069727;28;20047;-61
2022/12/25 09:38:52;;;;;;;8.43;5.07;;;6.60;99.90;;;;;;5087155;28;20157;-61
2022/12/25 09:41:30;;;;;;;11.77;5.82;;;6.60;99.90;;;;;;5059588;28;20066;-61
2022/12/25 09:44:01;;;;;;;12.70;6.15;;;6.60;99.90;;;;;;5053424;28;20072;-61
2022/12/25 09:46:38;;;;;;;11.65;5.85;;;6.60;99.90;;;;;;5077233;28;20047;-61
2022/12/25 09:49:25;;;;;;;13.57;7.03;;;6.60;99.90;;;;;;5091297;28;20055;-61
2022/12/25 09:51:58;;;;;;;11.27;5.28;;;6.60;99.90;;;;;;5053381;28;20045;-61
2022/12/25 09:54:45;;;;;;;13.27;7.50;;;6.70;99.90;;;;;;5060266;28;20061;-61
2022/12/25 09:57:13;;;;;;;12.93;6.95;;;6.60;99.90;;;;;;5089734;28;20492;-61
2022/12/25 09:59:46;;;;;;;11.63;6.25;;;6.80;99.90;;;;;;5074138;28;20511;-61
2022/12/25 10:02:46;;;;;;;11.35;6.13;;;6.90;99.90;;;;;;5053137;28;20059;-61
2022/12/25 10:05:46;;;;;;;9.27;5.47;;;6.90;99.90;;;;;;5061189;28;20440;-61
2022/12/25 10:08:39;;;;;;;14.48;7.55;;;7.00;99.90;;;;;;5088921;28;20114;-61
2022/12/25 10:11:21;;;;;;;11.63;6.40;;;7.10;99.90;;;;;;5052950;28;20094;-62
2022/12/25 10:14:09;;;;;;;30.95;13.00;;;7.20;99.90;;;;;;5052121;28;20044;-61
2022/12/25 10:16:53;;;;;;;9.93;5.50;;;7.30;99.90;;;;;;5061496;28;20549;-61
2022/12/25 10:19:39;;;;;;;11.43;6.25;;;7.30;99.90;;;;;;5052693;28;20045;-61
2022/12/25 10:22:41;;;;;;;9.95;5.85;;;7.20;99.90;;;;;;5052680;28;20049;-61
2022/12/25 10:25:16;;;;;;;11.15;6.63;;;7.20;99.90;;;;;;5069612;28;20102;-59
2022/12/25 10:27:43;;;;;;;9.02;5.57;;;7.40;99.90;;;;;;5074883;28;20496;-61
2022/12/25 10:30:36;;;;;;;12.13;7.10;;;7.50;99.90;;;;;;5081025;28;20067;-61
2022/12/25 10:33:03;;;;;;;11.85;5.63;;;7.50;99.90;;;;;;5074862;28;20115;-61
2022/12/25 10:35:31;;;;;;;9.40;5.40;;;7.40;99.90;;;;;;5052412;28;20170;-61
2022/12/25 10:38:09;;;;;;;9.18;5.53;;;7.40;99.90;;;;;;5059405;28;20064;-61
2022/12/25 10:40:54;;;;;;;8.68;5.38;;;7.40;99.90;;;;;;5065568;28;20075;-61
2022/12/25 10:43:35;;;;;;;8.23;5.63;;;7.30;99.90;;;;;;5071722;28;20044;-61
2022/12/25 10:46:10;;;;;;;9.60;5.95;;;7.40;99.90;;;;;;5072716;28;20455;-61
2022/12/25 10:48:59;;;;;;;12.20;6.53;;;7.50;99.90;;;;;;5076411;22;20067;-60
2022/12/25 10:51:34;;;;;;;11.77;6.57;;;7.50;99.90;;;;;;5050759;28;20218;-60
2022/12/25 10:54:03;;;;;;;11.23;6.30;;;7.70;99.90;;;;;;5032088;28;20107;-60
2022/12/25 10:56:30;;;;;;;16.45;7.03;;;7.60;99.90;;;;;;5050782;28;20129;-60
2022/12/25 10:59:04;;;;;;;13.95;7.10;;;7.50;99.90;;;;;;5053888;28;20075;-60
2022/12/25 11:01:31;;;;;;;14.88;6.43;;;7.50;99.90;;;;;;5050824;28;20060;-60
2022/12/25 11:03:58;;;;;;;;;;;7.70;99.90;;;;;;5052679;28;20041;-60
2022/12/25 11:06:29;;;;;;;8.85;5.82;;;7.90;99.90;;;;;;5051390;28;19960;-60
2022/12/25 11:08:58;;;;;;;8.77;5.50;;;8.00;99.90;;;;;;5054963;28;20455;-60
2022/12/25 11:11:26;;;;;;;8.05;5.50;;;8.00;99.90;;;;;;5050783;28;20045;-60
2022/12/25 11:13:57;;;;;;;8.98;6.00;;;7.80;99.90;;;;;;5052009;28;20094;-60
2022/12/25 11:16:27;;;;;;;8.27;5.53;;;7.80;99.90;;;;;;5051020;28;20048;-60
2022/12/25 11:18:54;;;;;;;11.38;6.05;;;7.70;99.90;;;;;;5051774;28;20061;-60
2022/12/25 11:21:32;;;;;;;9.68;6.10;;;7.80;99.90;;;;;;5044270;28;20041;-60
2022/12/25 11:24:02;;;;;;;11.25;5.78;;;7.80;99.90;;;;;;5051501;28;20135;-60
2022/12/25 11:26:35;;;;;;;11.90;6.90;;;7.90;99.90;;;;;;5050962;28;20106;-60
2022/12/25 11:29:04;;;;;;;9.38;6.03;;;8.00;99.90;;;;;;5053093;28;20052;-60
2022/12/25 11:31:39;;;;;;;7.60;5.25;;;8.00;99.90;;;;;;5050270;28;20025;-60
2022/12/25 11:34:16;;;;;;;9.02;5.13;;;7.90;99.90;;;;;;5050626;28;20049;-60
2022/12/25 11:36:48;;;;;;;8.05;5.15;;;8.00;99.90;;;;;;5053603;28;20040;-60
2022/12/25 11:39:22;;;;;;;9.27;5.38;;;7.90;99.90;;;;;;5052442;28;20083;-60
2022/12/25 11:41:56;;;;;;;15.43;7.65;;;7.90;99.90;;;;;;5049904;28;20048;-60
2022/12/25 11:44:41;;;;;;;10.52;5.80;;;8.00;99.90;;;;;;5050381;28;20036;-61
2022/12/25 11:47:25;;;;;;;9.65;4.97;;;8.10;99.90;;;;;;5051125;28;20041;-60
2022/12/25 11:50:22;;;;;;;10.32;6.03;;;8.10;99.90;;;;;;5049823;28;20036;-61
2022/12/25 11:52:51;;;;;;;7.82;5.20;;;8.20;99.90;;;;;;5064960;28;20048;-60
2022/12/25 11:55:35;;;;;;;10.50;5.53;;;8.10;99.90;;;;;;5049929;28;20029;-60
2022/12/25 11:58:12;;;;;;;9.05;5.22;;;8.10;99.90;;;;;;5051207;28;20452;-61
2022/12/25 12:00:41;;;;;;;7.78;5.15;;;8.00;99.90;;;;;;5050966;28;20124;-60
2022/12/25 12:03:25;;;;;;;11.57;6.00;;;8.00;99.90;;;;;;5050052;28;20049;-60
2022/12/25 12:05:56;;;;;;;11.52;5.75;;;8.10;99.90;;;;;;5049996;28;20124;-60
2022/12/25 12:08:23;;;;;;;7.07;4.80;;;8.10;99.90;;;;;;5050380;28;20048;-60
2022/12/25 12:11:14;;;;;;;17.75;8.85;;;8.00;99.90;;;;;;5051580;28;20067;-61
2022/12/25 12:14:06;;;;;;;11.20;6.22;;;8.00;99.90;;;;;;5049853;28;20071;-60
2022/12/25 12:16:34;;;;;;;11.68;6.30;;;8.10;99.90;;;;;;5051261;28;20056;-60
2022/12/25 12:19:27;;;;;;;13.60;6.00;;;8.00;99.90;;;;;;5050109;28;20092;-60
2022/12/25 12:22:01;;;;;;;12.75;6.28;;;8.10;99.90;;;;;;5049377;28;20068;-60
2022/12/25 12:24:35;;;;;;;9.68;5.55;;;8.10;99.90;;;;;;5038333;28;20054;-61
2022/12/25 12:27:09;;;;;;;7.18;4.78;;;8.10;99.90;;;;;;5056348;28;20664;-60
2022/12/25 12:29:43;;;;;;;7.70;5.25;;;8.00;99.90;;;;;;5044434;28;20068;-60
2022/12/25 12:32:32;;;;;;;9.48;5.53;;;8.10;99.90;;;;;;5043046;28;20037;-61
2022/12/25 12:35:20;;;;;;;9.55;5.22;;;8.20;99.90;;;;;;5050586;28;20099;-60
2022/12/25 12:37:54;;;;;;;9.88;5.65;;;8.20;99.90;;;;;;5051136;28;20098;-60
2022/12/25 12:40:32;;;;;;;12.00;5.70;;;8.10;99.90;;;;;;5051010;28;20083;-61
2022/12/25 12:43:00;;;;;;;13.63;6.80;;;8.20;99.90;;;;;;5049625;28;20506;-60
2022/12/25 12:45:33;;;;;;;10.13;5.72;;;8.20;99.90;;;;;;5052670;28;20047;-60
2022/12/25 12:48:00;;;;;;;11.68;5.85;;;8.10;99.90;;;;;;5049786;28;20040;-61
2022/12/25 12:50:35;;;;;;;7.88;5.00;;;8.10;99.90;;;;;;5051223;28;20029;-60
2022/12/25 12:53:23;;;;;;;6.75;4.53;;;8.10;99.90;;;;;;5049394;28;20116;-61
2022/12/25 12:55:51;;;;;;;8.95;4.72;;;8.10;99.90;;;;;;5049639;28;20049;-60
2022/12/25 12:58:32;;;;;;;12.57;5.88;;;8.10;99.90;;;;;;5050097;28;20466;-61
2022/12/25 13:01:01;;;;;;;10.38;6.00;;;8.20;99.90;;;;;;5051832;28;20083;-60
2022/12/25 13:03:45;;;;;;;10.60;5.75;;;8.20;99.90;;;;;;5050174;28;20049;-60
2022/12/25 13:06:32;;;;;;;7.00;4.50;;;8.30;99.90;;;;;;5047846;28;20045;-61
2022/12/25 13:09:36;;;;;;;7.28;4.47;;;8.30;99.90;;;;;;5044914;28;20046;-60
2022/12/25 13:12:06;;;;;;;7.28;4.38;;;8.40;99.90;;;;;;5042059;28;20069;-60
2022/12/25 13:14:36;;;;;;;6.10;4.03;;;8.50;99.90;;;;;;5043220;28;20025;-61
2022/12/25 13:17:06;;;;;;;8.60;4.78;;;8.50;99.90;;;;;;5044650;28;20041;-60
2022/12/25 13:19:35;;;;;;;10.07;5.03;;;8.60;99.90;;;;;;5045714;28;20049;-60
2022/12/25 13:22:05;;;;;;;9.88;5.10;;;8.70;99.90;;;;;;5043496;28;20098;-61
2022/12/25 13:24:34;;;;;;;9.75;5.68;;;8.90;99.90;;;;;;5050520;28;20072;-61
2022/12/25 13:27:19;;;;;;;12.43;6.07;;;8.90;99.90;;;;;;5053420;28;20501;-60
2022/12/25 13:29:46;;;;;;;15.63;7.85;;;8.90;99.90;;;;;;5068416;28;20043;-60
2022/12/25 13:32:20;;;;;;;13.90;6.97;;;8.80;99.90;;;;;;5051126;28;20048;-61
2022/12/25 13:34:50;;;;;;;20.92;9.20;;;8.70;99.90;;;;;;5052493;28;20048;-60
2022/12/25 13:37:23;;;;;;;7.05;4.82;;;8.70;99.90;;;;;;5051728;28;20464;-60
2022/12/25 13:40:03;;;;;;;7.85;4.45;;;8.60;99.90;;;;;;5046608;28;20051;-60
2022/12/25 13:42:34;;;;;;;9.30;5.90;;;8.50;99.90;;;;;;5047013;28;20503;-60
2022/12/25 13:45:12;;;;;;;10.57;5.28;;;8.50;99.90;;;;;;5044160;28;20073;-60
2022/12/25 13:47:48;;;;;;;6.78;4.18;;;8.50;99.90;;;;;;5048041;28;20041;-60
2022/12/25 13:50:32;;;;;;;6.35;3.90;;;8.60;99.90;;;;;;5044429;28;20052;-60
2022/12/25 13:53:15;;;;;;;7.18;4.70;;;8.50;99.90;;;;;;5043199;28;20045;-60
2022/12/25 13:55:45;;;;;;;8.98;4.53;;;8.50;99.90;;;;;;5041013;28;20099;-60
2022/12/25 13:58:22;;;;;;;7.82;4.50;;;8.50;99.90;;;;;;5043308;28;20041;-61
2022/12/25 14:00:52;;;;;;;6.95;4.38;;;8.50;99.90;;;;;;5046846;28;20096;-60
2022/12/25 14:03:29;;;;;;;10.40;5.57;;;8.60;99.90;;;;;;5044462;28;20391;-60
2022/12/25 14:05:58;;;;;;;6.75;4.85;;;8.50;99.90;;;;;;5041999;28;20505;-60
2022/12/25 14:08:30;;;;;;;8.80;4.75;;;8.50;99.90;;;;;;5044396;28;20128;-60
2022/12/25 14:10:59;;;;;;;7.90;4.82;;;8.40;99.90;;;;;;5043229;28;20504;-61
2022/12/25 14:13:27;;;;;;;18.20;8.00;;;8.30;99.90;;;;;;5042959;28;20036;-61
2022/12/25 14:15:55;;;;;;;11.73;6.50;;;8.30;99.90;;;;;;5043292;28;20494;-60
2022/12/25 14:18:23;;;;;;;9.90;5.95;;;8.30;99.90;;;;;;5038951;28;20775;-60
2022/12/25 14:21:11;;;;;;;9.40;5.13;;;8.20;99.90;;;;;;5046198;28;20052;-60
2022/12/25 14:23:42;;;;;;;11.60;5.68;;;8.10;99.90;;;;;;5044869;28;20048;-60
2022/12/25 14:26:25;;;;;;;11.55;5.28;;;8.10;99.90;;;;;;5044369;28;20450;-61
2022/12/25 14:29:10;;;;;;;11.57;6.30;;;8.00;99.90;;;;;;5046881;28;20098;-60
2022/12/25 14:31:45;;;;;;;9.82;6.95;;;8.00;99.90;;;;;;5048107;28;20063;-61
2022/12/25 14:34:21;;;;;;;9.88;6.10;;;7.90;99.90;;;;;;5055737;28;20060;-60
2022/12/25 14:36:49;;;;;;;8.82;5.13;;;7.90;99.90;;;;;;5061132;28;20068;-60
2022/12/25 14:39:25;;;;;;;10.27;6.07;;;7.90;99.90;;;;;;5064983;28;20062;-61
2022/12/25 14:41:53;;;;;;;12.98;6.80;;;7.80;99.90;;;;;;5063235;28;20036;-60
2022/12/25 14:44:37;;;;;;;12.57;7.18;;;7.70;99.90;;;;;;5065062;28;20110;-60
2022/12/25 14:47:10;;;;;;;10.43;6.28;;;7.70;99.90;;;;;;5059379;28;20068;-61
2022/12/25 14:49:37;;;;;;;12.93;5.55;;;7.70;99.90;;;;;;5063448;28;20103;-61
2022/12/25 14:52:15;;;;;;;9.93;5.18;;;7.60;99.90;;;;;;5056420;28;20071;-61